sensor_id;sensor_type;location;lat;lon;timestamp;P1;durP1;ratioP1;P2;durP2;ratioP2
30896;SDS011;64229;52.246;21.054;2024-01-11T00:01:44;109.97;;;33.83;;
30896;SDS011;64229;52.246;21.054;2024-01-11T00:04:13;109.53;;;35.38;;
30896;SDS011;64229;52.246;21.054;2024-01-11T00:06:42;107.50;;;35.75;;
30896;SDS011;64229;52.246;21.054;2024-01-11T00:09:07;111.40;;;34.45;;
30896;SDS011;64229;52.246;21.054;2024-01-11T00:11:33;106.57;;;34.72;;
30896;SDS011;64229;52.246;21.054;2024-01-11T00:13:58;116.50;;;34.80;;
30896;SDS011;64229;52.246;21.054;2024-01-11T00:16:24;116.13;;;36.63;;
30896;SDS011;64229;52.246;21.054;2024-01-11T00:18:49;121.95;;;37.15;;
30896;SDS011;64229;52.246;21.054;2024-01-11T00:21:14;120.22;;;35.95;;
30896;SDS011;64229;52.246;21.054;2024-01-11T00:23:40;112.95;;;35.35;;
30896;SDS011;64229;52.246;21.054;2024-01-11T00:26:05;114.78;;;35.80;;
30896;SDS011;64229;52.246;21.054;2024-01-11T00:28:30;112.90;;;37.65;;
30896;SDS011;64229;52.246;21.054;2024-01-11T00:30:56;107.95;;;34.75;;
30896;SDS011;64229;52.246;21.054;2024-01-11T00:33:21;116.38;;;37.33;;
30896;SDS011;64229;52.246;21.054;2024-01-11T00:35:46;109.80;;;35.65;;
30896;SDS011;64229;52.246;21.054;2024-01-11T00:38:11;122.38;;;36.65;;
30896;SDS011;64229;52.246;21.054;2024-01-11T00:40:37;120.63;;;37.33;;
30896;SDS011;64229;52.246;21.054;2024-01-11T00:43:02;125.88;;;35.72;;
30896;SDS011;64229;52.246;21.054;2024-01-11T00:45:28;117.53;;;36.53;;
30896;SDS011;64229;52.246;21.054;2024-01-11T00:47:53;124.05;;;36.83;;
30896;SDS011;64229;52.246;21.054;2024-01-11T00:50:18;120.60;;;34.83;;
30896;SDS011;64229;52.246;21.054;2024-01-11T00:52:44;122.68;;;36.10;;
30896;SDS011;64229;52.246;21.054;2024-01-11T00:55:09;107.45;;;35.53;;
30896;SDS011;64229;52.246;21.054;2024-01-11T00:57:34;114.60;;;33.83;;
30896;SDS011;64229;52.246;21.054;2024-01-11T01:00:00;109.93;;;33.35;;
30896;SDS011;64229;52.246;21.054;2024-01-11T01:02:25;105.00;;;33.65;;
30896;SDS011;64229;52.246;21.054;2024-01-11T01:04:50;103.88;;;32.35;;
30896;SDS011;64229;52.246;21.054;2024-01-11T01:07:15;101.72;;;34.58;;
30896;SDS011;64229;52.246;21.054;2024-01-11T01:09:41;95.05;;;32.97;;
30896;SDS011;64229;52.246;21.054;2024-01-11T01:12:06;87.55;;;30.27;;
30896;SDS011;64229;52.246;21.054;2024-01-11T01:14:31;93.40;;;29.73;;
30896;SDS011;64229;52.246;21.054;2024-01-11T01:16:57;88.35;;;29.73;;
30896;SDS011;64229;52.246;21.054;2024-01-11T01:19:22;93.53;;;29.10;;
30896;SDS011;64229;52.246;21.054;2024-01-11T01:21:48;84.75;;;26.17;;
30896;SDS011;64229;52.246;21.054;2024-01-11T01:24:13;83.80;;;26.98;;
30896;SDS011;64229;52.246;21.054;2024-01-11T01:26:38;84.65;;;27.65;;
30896;SDS011;64229;52.246;21.054;2024-01-11T01:29:04;87.03;;;27.70;;
30896;SDS011;64229;52.246;21.054;2024-01-11T01:31:30;93.65;;;27.15;;
30896;SDS011;64229;52.246;21.054;2024-01-11T01:34:02;78.25;;;25.85;;
30896;SDS011;64229;52.246;21.054;2024-01-11T01:36:28;83.10;;;26.17;;
30896;SDS011;64229;52.246;21.054;2024-01-11T01:38:53;90.60;;;27.45;;
30896;SDS011;64229;52.246;21.054;2024-01-11T01:41:18;82.00;;;26.42;;
30896;SDS011;64229;52.246;21.054;2024-01-11T01:43:44;79.07;;;26.98;;
30896;SDS011;64229;52.246;21.054;2024-01-11T01:46:09;74.43;;;27.45;;
30896;SDS011;64229;52.246;21.054;2024-01-11T01:48:35;88.28;;;27.85;;
30896;SDS011;64229;52.246;21.054;2024-01-11T01:51:01;87.50;;;24.73;;
30896;SDS011;64229;52.246;21.054;2024-01-11T01:53:28;76.47;;;26.13;;
30896;SDS011;64229;52.246;21.054;2024-01-11T01:55:54;80.18;;;24.02;;
30896;SDS011;64229;52.246;21.054;2024-01-11T01:58:20;77.50;;;25.05;;
30896;SDS011;64229;52.246;21.054;2024-01-11T02:00:47;79.20;;;26.23;;
30896;SDS011;64229;52.246;21.054;2024-01-11T02:03:15;84.03;;;23.30;;
30896;SDS011;64229;52.246;21.054;2024-01-11T02:05:41;80.05;;;25.35;;
30896;SDS011;64229;52.246;21.054;2024-01-11T02:08:07;87.80;;;26.08;;
30896;SDS011;64229;52.246;21.054;2024-01-11T02:10:37;79.07;;;24.48;;
30896;SDS011;64229;52.246;21.054;2024-01-11T02:13:02;77.30;;;24.65;;
30896;SDS011;64229;52.246;21.054;2024-01-11T02:15:28;85.28;;;24.00;;
30896;SDS011;64229;52.246;21.054;2024-01-11T02:17:53;73.00;;;23.45;;
30896;SDS011;64229;52.246;21.054;2024-01-11T02:20:19;71.88;;;21.38;;
30896;SDS011;64229;52.246;21.054;2024-01-11T02:22:46;75.72;;;24.52;;
30896;SDS011;64229;52.246;21.054;2024-01-11T02:25:15;77.80;;;24.23;;
30896;SDS011;64229;52.246;21.054;2024-01-11T02:27:49;79.10;;;26.52;;
30896;SDS011;64229;52.246;21.054;2024-01-11T02:30:15;72.50;;;21.42;;
30896;SDS011;64229;52.246;21.054;2024-01-11T02:32:45;74.63;;;24.02;;
30896;SDS011;64229;52.246;21.054;2024-01-11T02:35:13;67.28;;;21.50;;
30896;SDS011;64229;52.246;21.054;2024-01-11T02:37:39;77.82;;;24.58;;
30896;SDS011;64229;52.246;21.054;2024-01-11T02:40:08;80.47;;;21.63;;
30896;SDS011;64229;52.246;21.054;2024-01-11T02:42:34;80.07;;;24.80;;
30896;SDS011;64229;52.246;21.054;2024-01-11T02:45:00;80.22;;;22.75;;
30896;SDS011;64229;52.246;21.054;2024-01-11T02:47:26;78.03;;;23.10;;
30896;SDS011;64229;52.246;21.054;2024-01-11T02:49:51;78.95;;;24.88;;
30896;SDS011;64229;52.246;21.054;2024-01-11T02:52:16;76.60;;;22.65;;
30896;SDS011;64229;52.246;21.054;2024-01-11T02:54:42;76.18;;;23.17;;
30896;SDS011;64229;52.246;21.054;2024-01-11T02:57:07;76.72;;;24.63;;
30896;SDS011;64229;52.246;21.054;2024-01-11T02:59:32;81.20;;;23.73;;
30896;SDS011;64229;52.246;21.054;2024-01-11T03:01:58;75.88;;;23.52;;
30896;SDS011;64229;52.246;21.054;2024-01-11T03:04:23;65.03;;;21.52;;
30896;SDS011;64229;52.246;21.054;2024-01-11T03:06:49;72.63;;;21.85;;
30896;SDS011;64229;52.246;21.054;2024-01-11T03:09:14;88.85;;;24.08;;
30896;SDS011;64229;52.246;21.054;2024-01-11T03:11:39;79.53;;;20.67;;
30896;SDS011;64229;52.246;21.054;2024-01-11T03:14:05;79.32;;;24.17;;
30896;SDS011;64229;52.246;21.054;2024-01-11T03:16:31;85.53;;;22.67;;
30896;SDS011;64229;52.246;21.054;2024-01-11T03:18:56;84.22;;;23.30;;
30896;SDS011;64229;52.246;21.054;2024-01-11T03:21:22;87.53;;;23.05;;
30896;SDS011;64229;52.246;21.054;2024-01-11T03:23:47;90.32;;;25.15;;
30896;SDS011;64229;52.246;21.054;2024-01-11T03:26:16;80.18;;;21.13;;
30896;SDS011;64229;52.246;21.054;2024-01-11T03:28:42;78.03;;;21.95;;
30896;SDS011;64229;52.246;21.054;2024-01-11T03:31:08;86.68;;;24.15;;
30896;SDS011;64229;52.246;21.054;2024-01-11T03:33:34;75.53;;;21.63;;
30896;SDS011;64229;52.246;21.054;2024-01-11T03:35:59;80.60;;;23.00;;
30896;SDS011;64229;52.246;21.054;2024-01-11T03:38:30;82.50;;;21.98;;
30896;SDS011;64229;52.246;21.054;2024-01-11T03:40:56;83.15;;;24.65;;
30896;SDS011;64229;52.246;21.054;2024-01-11T03:43:21;79.38;;;23.77;;
30896;SDS011;64229;52.246;21.054;2024-01-11T03:45:46;87.40;;;23.85;;
30896;SDS011;64229;52.246;21.054;2024-01-11T03:48:12;80.50;;;23.48;;
30896;SDS011;64229;52.246;21.054;2024-01-11T03:50:37;89.43;;;23.27;;
30896;SDS011;64229;52.246;21.054;2024-01-11T03:53:03;89.60;;;23.60;;
30896;SDS011;64229;52.246;21.054;2024-01-11T03:55:29;86.10;;;23.67;;
30896;SDS011;64229;52.246;21.054;2024-01-11T03:57:54;90.45;;;24.25;;
30896;SDS011;64229;52.246;21.054;2024-01-11T04:00:20;88.90;;;22.23;;
30896;SDS011;64229;52.246;21.054;2024-01-11T04:02:45;84.90;;;23.48;;
30896;SDS011;64229;52.246;21.054;2024-01-11T04:05:11;88.28;;;22.92;;
30896;SDS011;64229;52.246;21.054;2024-01-11T04:07:36;85.20;;;25.73;;
30896;SDS011;64229;52.246;21.054;2024-01-11T04:10:01;86.25;;;24.55;;
30896;SDS011;64229;52.246;21.054;2024-01-11T04:12:27;87.15;;;25.10;;
30896;SDS011;64229;52.246;21.054;2024-01-11T04:14:52;94.45;;;26.38;;
30896;SDS011;64229;52.246;21.054;2024-01-11T04:17:17;90.55;;;25.00;;
30896;SDS011;64229;52.246;21.054;2024-01-11T04:19:43;88.30;;;25.80;;
30896;SDS011;64229;52.246;21.054;2024-01-11T04:22:08;94.20;;;24.63;;
30896;SDS011;64229;52.246;21.054;2024-01-11T04:24:34;90.13;;;25.73;;
30896;SDS011;64229;52.246;21.054;2024-01-11T04:26:59;79.82;;;23.75;;
30896;SDS011;64229;52.246;21.054;2024-01-11T04:29:24;92.57;;;25.55;;
30896;SDS011;64229;52.246;21.054;2024-01-11T04:31:49;87.10;;;25.17;;
30896;SDS011;64229;52.246;21.054;2024-01-11T04:34:15;99.25;;;25.88;;
30896;SDS011;64229;52.246;21.054;2024-01-11T04:36:40;86.25;;;25.55;;
30896;SDS011;64229;52.246;21.054;2024-01-11T04:39:06;77.75;;;23.80;;
30896;SDS011;64229;52.246;21.054;2024-01-11T04:41:33;92.10;;;26.02;;
30896;SDS011;64229;52.246;21.054;2024-01-11T04:44:00;93.30;;;24.73;;
30896;SDS011;64229;52.246;21.054;2024-01-11T04:46:26;97.30;;;27.02;;
30896;SDS011;64229;52.246;21.054;2024-01-11T04:48:51;91.00;;;26.13;;
30896;SDS011;64229;52.246;21.054;2024-01-11T04:51:17;98.38;;;27.42;;
30896;SDS011;64229;52.246;21.054;2024-01-11T04:53:43;91.20;;;26.83;;
30896;SDS011;64229;52.246;21.054;2024-01-11T04:56:11;101.85;;;27.67;;
30896;SDS011;64229;52.246;21.054;2024-01-11T04:58:40;95.65;;;26.40;;
30896;SDS011;64229;52.246;21.054;2024-01-11T05:01:06;87.82;;;25.15;;
30896;SDS011;64229;52.246;21.054;2024-01-11T05:03:32;90.80;;;26.20;;
30896;SDS011;64229;52.246;21.054;2024-01-11T05:05:58;82.18;;;24.75;;
30896;SDS011;64229;52.246;21.054;2024-01-11T05:08:25;90.15;;;26.55;;
30896;SDS011;64229;52.246;21.054;2024-01-11T05:10:51;90.80;;;25.63;;
30896;SDS011;64229;52.246;21.054;2024-01-11T05:13:17;95.70;;;25.60;;
30896;SDS011;64229;52.246;21.054;2024-01-11T05:15:43;85.35;;;24.45;;
30896;SDS011;64229;52.246;21.054;2024-01-11T05:18:08;90.75;;;24.92;;
30896;SDS011;64229;52.246;21.054;2024-01-11T05:20:33;90.32;;;24.65;;
30896;SDS011;64229;52.246;21.054;2024-01-11T05:22:58;79.85;;;22.02;;
30896;SDS011;64229;52.246;21.054;2024-01-11T05:25:25;86.35;;;25.42;;
30896;SDS011;64229;52.246;21.054;2024-01-11T05:27:51;77.03;;;22.40;;
30896;SDS011;64229;52.246;21.054;2024-01-11T05:30:16;70.05;;;23.00;;
30896;SDS011;64229;52.246;21.054;2024-01-11T05:32:41;87.05;;;24.92;;
30896;SDS011;64229;52.246;21.054;2024-01-11T05:35:07;68.88;;;19.95;;
30896;SDS011;64229;52.246;21.054;2024-01-11T05:37:33;74.18;;;21.38;;
30896;SDS011;64229;52.246;21.054;2024-01-11T05:39:58;71.65;;;20.52;;
30896;SDS011;64229;52.246;21.054;2024-01-11T05:42:23;76.70;;;21.75;;
30896;SDS011;64229;52.246;21.054;2024-01-11T05:44:50;65.85;;;20.52;;
30896;SDS011;64229;52.246;21.054;2024-01-11T05:47:16;64.00;;;21.05;;
30896;SDS011;64229;52.246;21.054;2024-01-11T05:49:42;76.47;;;20.20;;
30896;SDS011;64229;52.246;21.054;2024-01-11T05:52:07;68.85;;;20.42;;
30896;SDS011;64229;52.246;21.054;2024-01-11T05:54:33;63.78;;;20.10;;
30896;SDS011;64229;52.246;21.054;2024-01-11T05:56:58;59.70;;;19.80;;
30896;SDS011;64229;52.246;21.054;2024-01-11T05:59:24;60.42;;;20.63;;
30896;SDS011;64229;52.246;21.054;2024-01-11T06:01:50;56.88;;;17.83;;
30896;SDS011;64229;52.246;21.054;2024-01-11T06:04:15;60.20;;;19.80;;
30896;SDS011;64229;52.246;21.054;2024-01-11T06:06:41;64.03;;;20.50;;
30896;SDS011;64229;52.246;21.054;2024-01-11T06:09:07;62.17;;;19.45;;
30896;SDS011;64229;52.246;21.054;2024-01-11T06:11:33;61.50;;;18.00;;
30896;SDS011;64229;52.246;21.054;2024-01-11T06:13:58;57.15;;;17.52;;
30896;SDS011;64229;52.246;21.054;2024-01-11T06:16:25;64.47;;;19.35;;
30896;SDS011;64229;52.246;21.054;2024-01-11T06:18:50;62.83;;;17.42;;
30896;SDS011;64229;52.246;21.054;2024-01-11T06:21:16;61.05;;;17.73;;
30896;SDS011;64229;52.246;21.054;2024-01-11T06:23:43;55.83;;;17.75;;
30896;SDS011;64229;52.246;21.054;2024-01-11T06:26:08;55.50;;;17.35;;
30896;SDS011;64229;52.246;21.054;2024-01-11T06:28:34;58.50;;;18.00;;
30896;SDS011;64229;52.246;21.054;2024-01-11T06:30:59;58.30;;;17.30;;
30896;SDS011;64229;52.246;21.054;2024-01-11T06:33:24;60.38;;;19.63;;
30896;SDS011;64229;52.246;21.054;2024-01-11T06:35:50;54.03;;;16.52;;
30896;SDS011;64229;52.246;21.054;2024-01-11T06:38:15;55.85;;;15.88;;
30896;SDS011;64229;52.246;21.054;2024-01-11T06:40:40;52.10;;;15.90;;
30896;SDS011;64229;52.246;21.054;2024-01-11T06:43:06;47.70;;;15.95;;
30896;SDS011;64229;52.246;21.054;2024-01-11T06:45:31;55.55;;;16.02;;
30896;SDS011;64229;52.246;21.054;2024-01-11T06:47:57;44.13;;;14.90;;
30896;SDS011;64229;52.246;21.054;2024-01-11T06:50:22;57.13;;;17.08;;
30896;SDS011;64229;52.246;21.054;2024-01-11T06:52:47;56.35;;;15.95;;
30896;SDS011;64229;52.246;21.054;2024-01-11T06:55:13;52.20;;;15.75;;
30896;SDS011;64229;52.246;21.054;2024-01-11T06:57:39;43.88;;;14.18;;
30896;SDS011;64229;52.246;21.054;2024-01-11T07:00:05;44.47;;;14.10;;
30896;SDS011;64229;52.246;21.054;2024-01-11T07:02:32;48.17;;;14.52;;
30896;SDS011;64229;52.246;21.054;2024-01-11T07:04:57;49.00;;;15.35;;
30896;SDS011;64229;52.246;21.054;2024-01-11T07:07:23;48.63;;;14.48;;
30896;SDS011;64229;52.246;21.054;2024-01-11T07:09:48;48.70;;;14.07;;
30896;SDS011;64229;52.246;21.054;2024-01-11T07:12:13;59.20;;;14.68;;
30896;SDS011;64229;52.246;21.054;2024-01-11T07:14:39;53.90;;;15.80;;
30896;SDS011;64229;52.246;21.054;2024-01-11T07:17:04;47.85;;;14.95;;
30896;SDS011;64229;52.246;21.054;2024-01-11T07:19:30;41.25;;;13.52;;
30896;SDS011;64229;52.246;21.054;2024-01-11T07:21:56;49.83;;;14.48;;
30896;SDS011;64229;52.246;21.054;2024-01-11T07:24:21;53.40;;;15.88;;
30896;SDS011;64229;52.246;21.054;2024-01-11T07:26:46;44.88;;;14.13;;
30896;SDS011;64229;52.246;21.054;2024-01-11T07:29:12;56.05;;;15.52;;
30896;SDS011;64229;52.246;21.054;2024-01-11T07:31:37;51.35;;;14.82;;
30896;SDS011;64229;52.246;21.054;2024-01-11T07:34:03;54.40;;;15.07;;
30896;SDS011;64229;52.246;21.054;2024-01-11T07:36:28;56.25;;;15.35;;
30896;SDS011;64229;52.246;21.054;2024-01-11T07:38:53;50.42;;;15.88;;
30896;SDS011;64229;52.246;21.054;2024-01-11T07:41:21;44.28;;;13.27;;
30896;SDS011;64229;52.246;21.054;2024-01-11T07:43:46;53.17;;;14.65;;
30896;SDS011;64229;52.246;21.054;2024-01-11T07:46:12;48.13;;;13.65;;
30896;SDS011;64229;52.246;21.054;2024-01-11T07:48:37;57.95;;;15.25;;
30896;SDS011;64229;52.246;21.054;2024-01-11T07:51:03;56.10;;;16.63;;
30896;SDS011;64229;52.246;21.054;2024-01-11T07:53:29;59.58;;;16.60;;
30896;SDS011;64229;52.246;21.054;2024-01-11T07:55:56;49.80;;;14.30;;
30896;SDS011;64229;52.246;21.054;2024-01-11T07:58:22;56.05;;;15.10;;
30896;SDS011;64229;52.246;21.054;2024-01-11T08:00:48;51.80;;;15.48;;
30896;SDS011;64229;52.246;21.054;2024-01-11T08:03:13;48.72;;;14.35;;
30896;SDS011;64229;52.246;21.054;2024-01-11T08:05:39;60.53;;;15.38;;
30896;SDS011;64229;52.246;21.054;2024-01-11T08:08:04;55.15;;;14.55;;
30896;SDS011;64229;52.246;21.054;2024-01-11T08:10:30;66.40;;;16.05;;
30896;SDS011;64229;52.246;21.054;2024-01-11T08:12:58;47.60;;;13.45;;
30896;SDS011;64229;52.246;21.054;2024-01-11T08:15:25;57.95;;;15.35;;
30896;SDS011;64229;52.246;21.054;2024-01-11T08:17:50;59.63;;;14.82;;
30896;SDS011;64229;52.246;21.054;2024-01-11T08:20:15;60.00;;;16.23;;
30896;SDS011;64229;52.246;21.054;2024-01-11T08:22:44;58.70;;;15.63;;
30896;SDS011;64229;52.246;21.054;2024-01-11T08:25:11;56.42;;;15.45;;
30896;SDS011;64229;52.246;21.054;2024-01-11T08:27:38;58.08;;;16.73;;
30896;SDS011;64229;52.246;21.054;2024-01-11T08:30:03;68.85;;;16.77;;
30896;SDS011;64229;52.246;21.054;2024-01-11T08:32:29;60.13;;;16.20;;
30896;SDS011;64229;52.246;21.054;2024-01-11T08:34:56;62.97;;;16.88;;
30896;SDS011;64229;52.246;21.054;2024-01-11T08:37:22;55.70;;;15.88;;
30896;SDS011;64229;52.246;21.054;2024-01-11T08:39:48;52.75;;;15.05;;
30896;SDS011;64229;52.246;21.054;2024-01-11T08:42:14;60.88;;;17.23;;
30896;SDS011;64229;52.246;21.054;2024-01-11T08:44:43;55.05;;;15.13;;
30896;SDS011;64229;52.246;21.054;2024-01-11T08:47:09;59.17;;;16.40;;
30896;SDS011;64229;52.246;21.054;2024-01-11T08:49:38;57.78;;;15.02;;
30896;SDS011;64229;52.246;21.054;2024-01-11T08:52:04;57.20;;;15.98;;
30896;SDS011;64229;52.246;21.054;2024-01-11T08:54:31;53.85;;;14.52;;
30896;SDS011;64229;52.246;21.054;2024-01-11T08:56:58;50.03;;;15.52;;
30896;SDS011;64229;52.246;21.054;2024-01-11T08:59:23;53.83;;;15.32;;
30896;SDS011;64229;52.246;21.054;2024-01-11T09:01:50;51.42;;;15.05;;
30896;SDS011;64229;52.246;21.054;2024-01-11T09:04:15;50.15;;;15.35;;
30896;SDS011;64229;52.246;21.054;2024-01-11T09:06:42;50.55;;;16.88;;
30896;SDS011;64229;52.246;21.054;2024-01-11T09:09:08;54.08;;;14.10;;
30896;SDS011;64229;52.246;21.054;2024-01-11T09:11:35;42.70;;;13.77;;
30896;SDS011;64229;52.246;21.054;2024-01-11T09:14:01;43.20;;;14.15;;
30896;SDS011;64229;52.246;21.054;2024-01-11T09:16:28;48.38;;;12.30;;
30896;SDS011;64229;52.246;21.054;2024-01-11T09:18:53;43.95;;;12.43;;
30896;SDS011;64229;52.246;21.054;2024-01-11T09:21:19;48.47;;;13.32;;
30896;SDS011;64229;52.246;21.054;2024-01-11T09:23:44;45.65;;;13.35;;
30896;SDS011;64229;52.246;21.054;2024-01-11T09:26:10;44.75;;;12.68;;
30896;SDS011;64229;52.246;21.054;2024-01-11T09:28:35;48.85;;;13.98;;
30896;SDS011;64229;52.246;21.054;2024-01-11T09:31:01;50.28;;;12.95;;
30896;SDS011;64229;52.246;21.054;2024-01-11T09:33:28;43.72;;;12.93;;
30896;SDS011;64229;52.246;21.054;2024-01-11T09:35:54;38.72;;;11.80;;
30896;SDS011;64229;52.246;21.054;2024-01-11T09:38:21;39.28;;;12.48;;
30896;SDS011;64229;52.246;21.054;2024-01-11T09:40:48;40.13;;;12.57;;
30896;SDS011;64229;52.246;21.054;2024-01-11T09:43:32;42.70;;;12.00;;
30896;SDS011;64229;52.246;21.054;2024-01-11T09:45:59;39.63;;;13.10;;
30896;SDS011;64229;52.246;21.054;2024-01-11T09:48:28;42.20;;;13.02;;
30896;SDS011;64229;52.246;21.054;2024-01-11T09:50:55;35.08;;;11.18;;
30896;SDS011;64229;52.246;21.054;2024-01-11T09:53:22;46.88;;;14.50;;
30896;SDS011;64229;52.246;21.054;2024-01-11T09:55:50;38.08;;;13.40;;
30896;SDS011;64229;52.246;21.054;2024-01-11T09:58:16;48.40;;;15.23;;
30896;SDS011;64229;52.246;21.054;2024-01-11T10:00:43;43.35;;;14.57;;
30896;SDS011;64229;52.246;21.054;2024-01-11T10:03:09;38.47;;;13.35;;
30896;SDS011;64229;52.246;21.054;2024-01-11T10:05:35;37.10;;;12.27;;
30896;SDS011;64229;52.246;21.054;2024-01-11T10:08:01;40.83;;;13.55;;
30896;SDS011;64229;52.246;21.054;2024-01-11T10:10:26;43.35;;;13.98;;
30896;SDS011;64229;52.246;21.054;2024-01-11T10:12:52;46.58;;;14.60;;
30896;SDS011;64229;52.246;21.054;2024-01-11T10:15:18;48.13;;;14.43;;
30896;SDS011;64229;52.246;21.054;2024-01-11T10:17:43;42.22;;;12.63;;
30896;SDS011;64229;52.246;21.054;2024-01-11T10:20:11;45.25;;;12.73;;
30896;SDS011;64229;52.246;21.054;2024-01-11T10:22:38;56.55;;;15.63;;
30896;SDS011;64229;52.246;21.054;2024-01-11T10:25:10;38.17;;;13.20;;
30896;SDS011;64229;52.246;21.054;2024-01-11T10:27:37;41.63;;;14.05;;
30896;SDS011;64229;52.246;21.054;2024-01-11T10:30:11;50.13;;;14.88;;
30896;SDS011;64229;52.246;21.054;2024-01-11T10:32:45;37.03;;;13.23;;
30896;SDS011;64229;52.246;21.054;2024-01-11T10:35:11;45.88;;;15.07;;
30896;SDS011;64229;52.246;21.054;2024-01-11T10:37:37;47.10;;;14.95;;
30896;SDS011;64229;52.246;21.054;2024-01-11T10:40:08;46.83;;;14.50;;
30896;SDS011;64229;52.246;21.054;2024-01-11T10:42:48;49.33;;;14.77;;
30896;SDS011;64229;52.246;21.054;2024-01-11T10:45:17;44.85;;;14.02;;
30896;SDS011;64229;52.246;21.054;2024-01-11T10:47:47;43.40;;;14.57;;
30896;SDS011;64229;52.246;21.054;2024-01-11T10:50:19;46.33;;;14.30;;
30896;SDS011;64229;52.246;21.054;2024-01-11T10:53:03;48.20;;;14.77;;
30896;SDS011;64229;52.246;21.054;2024-01-11T10:57:59;47.65;;;14.95;;
30896;SDS011;64229;52.246;21.054;2024-01-11T11:00:25;62.70;;;16.10;;
30896;SDS011;64229;52.246;21.054;2024-01-11T11:02:52;50.22;;;16.67;;
30896;SDS011;64229;52.246;21.054;2024-01-11T11:05:20;59.38;;;16.15;;
30896;SDS011;64229;52.246;21.054;2024-01-11T11:07:48;54.80;;;16.50;;
30896;SDS011;64229;52.246;21.054;2024-01-11T11:10:15;47.75;;;14.43;;
30896;SDS011;64229;52.246;21.054;2024-01-11T11:12:42;51.50;;;16.02;;
30896;SDS011;64229;52.246;21.054;2024-01-11T11:15:10;60.55;;;16.58;;
30896;SDS011;64229;52.246;21.054;2024-01-11T11:17:37;55.80;;;17.42;;
30896;SDS011;64229;52.246;21.054;2024-01-11T11:20:04;54.55;;;16.48;;
30896;SDS011;64229;52.246;21.054;2024-01-11T11:22:35;54.17;;;17.05;;
30896;SDS011;64229;52.246;21.054;2024-01-11T11:25:06;60.45;;;17.40;;
30896;SDS011;64229;52.246;21.054;2024-01-11T11:27:36;59.53;;;16.33;;
30896;SDS011;64229;52.246;21.054;2024-01-11T11:30:03;61.15;;;17.63;;
30896;SDS011;64229;52.246;21.054;2024-01-11T11:32:42;66.80;;;18.13;;
30896;SDS011;64229;52.246;21.054;2024-01-11T11:35:08;61.70;;;17.13;;
30896;SDS011;64229;52.246;21.054;2024-01-11T11:37:37;65.60;;;17.70;;
30896;SDS011;64229;52.246;21.054;2024-01-11T11:40:06;71.13;;;18.83;;
30896;SDS011;64229;52.246;21.054;2024-01-11T11:42:34;58.47;;;17.75;;
30896;SDS011;64229;52.246;21.054;2024-01-11T11:45:00;61.78;;;18.02;;
30896;SDS011;64229;52.246;21.054;2024-01-11T11:47:34;74.75;;;18.83;;
30896;SDS011;64229;52.246;21.054;2024-01-11T11:50:07;72.22;;;18.55;;
30896;SDS011;64229;52.246;21.054;2024-01-11T11:52:35;71.85;;;18.05;;
30896;SDS011;64229;52.246;21.054;2024-01-11T11:55:05;66.45;;;17.42;;
30896;SDS011;64229;52.246;21.054;2024-01-11T11:57:32;71.07;;;19.23;;
30896;SDS011;64229;52.246;21.054;2024-01-11T11:59:58;70.25;;;19.80;;
30896;SDS011;64229;52.246;21.054;2024-01-11T12:02:24;73.78;;;20.38;;
30896;SDS011;64229;52.246;21.054;2024-01-11T12:04:51;75.82;;;20.30;;
30896;SDS011;64229;52.246;21.054;2024-01-11T12:07:16;70.35;;;19.02;;
30896;SDS011;64229;52.246;21.054;2024-01-11T12:09:43;64.40;;;18.33;;
30896;SDS011;64229;52.246;21.054;2024-01-11T12:12:08;69.93;;;19.17;;
30896;SDS011;64229;52.246;21.054;2024-01-11T12:14:34;78.68;;;19.70;;
30896;SDS011;64229;52.246;21.054;2024-01-11T12:17:00;72.93;;;19.20;;
30896;SDS011;64229;52.246;21.054;2024-01-11T12:19:27;63.17;;;16.25;;
30896;SDS011;64229;52.246;21.054;2024-01-11T12:21:53;75.97;;;19.05;;
30896;SDS011;64229;52.246;21.054;2024-01-11T12:24:19;74.07;;;19.63;;
30896;SDS011;64229;52.246;21.054;2024-01-11T12:26:47;66.97;;;20.30;;
30896;SDS011;64229;52.246;21.054;2024-01-11T12:29:15;76.93;;;20.60;;
30896;SDS011;64229;52.246;21.054;2024-01-11T12:31:42;78.35;;;19.60;;
30896;SDS011;64229;52.246;21.054;2024-01-11T12:34:07;65.50;;;19.48;;
30896;SDS011;64229;52.246;21.054;2024-01-11T12:36:33;68.13;;;18.10;;
30896;SDS011;64229;52.246;21.054;2024-01-11T12:38:59;83.07;;;21.25;;
30896;SDS011;64229;52.246;21.054;2024-01-11T12:41:24;71.32;;;18.70;;
30896;SDS011;64229;52.246;21.054;2024-01-11T12:43:49;59.30;;;18.92;;
30896;SDS011;64229;52.246;21.054;2024-01-11T12:46:15;65.53;;;18.88;;
30896;SDS011;64229;52.246;21.054;2024-01-11T12:48:41;62.80;;;16.27;;
30896;SDS011;64229;52.246;21.054;2024-01-11T12:51:07;67.63;;;18.65;;
30896;SDS011;64229;52.246;21.054;2024-01-11T12:53:32;64.00;;;17.42;;
30896;SDS011;64229;52.246;21.054;2024-01-11T12:56:04;60.25;;;18.60;;
30896;SDS011;64229;52.246;21.054;2024-01-11T12:58:35;60.22;;;17.88;;
30896;SDS011;64229;52.246;21.054;2024-01-11T13:01:01;68.35;;;18.85;;
30896;SDS011;64229;52.246;21.054;2024-01-11T13:03:28;65.80;;;18.85;;
30896;SDS011;64229;52.246;21.054;2024-01-11T13:05:53;61.53;;;17.33;;
30896;SDS011;64229;52.246;21.054;2024-01-11T13:08:19;62.65;;;18.70;;
30896;SDS011;64229;52.246;21.054;2024-01-11T13:10:44;61.17;;;18.00;;
30896;SDS011;64229;52.246;21.054;2024-01-11T13:13:12;60.40;;;18.08;;
30896;SDS011;64229;52.246;21.054;2024-01-11T13:15:37;54.60;;;18.30;;
30896;SDS011;64229;52.246;21.054;2024-01-11T13:18:03;62.30;;;18.83;;
30896;SDS011;64229;52.246;21.054;2024-01-11T13:20:29;61.05;;;18.40;;
30896;SDS011;64229;52.246;21.054;2024-01-11T13:23:14;66.72;;;19.58;;
30896;SDS011;64229;52.246;21.054;2024-01-11T13:25:47;65.43;;;18.40;;
30896;SDS011;64229;52.246;21.054;2024-01-11T13:28:17;64.45;;;19.90;;
30896;SDS011;64229;52.246;21.054;2024-01-11T13:30:44;72.53;;;19.35;;
30896;SDS011;64229;52.246;21.054;2024-01-11T13:33:14;67.32;;;20.23;;
30896;SDS011;64229;52.246;21.054;2024-01-11T13:35:42;65.47;;;20.00;;
30896;SDS011;64229;52.246;21.054;2024-01-11T13:38:08;67.70;;;19.52;;
30896;SDS011;64229;52.246;21.054;2024-01-11T13:40:34;60.10;;;19.63;;
30896;SDS011;64229;52.246;21.054;2024-01-11T13:42:59;63.50;;;18.45;;
30896;SDS011;64229;52.246;21.054;2024-01-11T13:45:26;63.20;;;19.08;;
30896;SDS011;64229;52.246;21.054;2024-01-11T13:47:51;56.45;;;16.13;;
30896;SDS011;64229;52.246;21.054;2024-01-11T13:50:20;59.90;;;17.58;;
30896;SDS011;64229;52.246;21.054;2024-01-11T13:52:46;62.55;;;19.20;;
30896;SDS011;64229;52.246;21.054;2024-01-11T13:55:12;62.78;;;19.40;;
30896;SDS011;64229;52.246;21.054;2024-01-11T13:57:38;59.45;;;17.95;;
30896;SDS011;64229;52.246;21.054;2024-01-11T14:00:04;58.42;;;17.73;;
30896;SDS011;64229;52.246;21.054;2024-01-11T14:02:31;66.68;;;19.20;;
30896;SDS011;64229;52.246;21.054;2024-01-11T14:04:57;75.90;;;21.20;;
30896;SDS011;64229;52.246;21.054;2024-01-11T14:07:22;65.32;;;19.23;;